Time;durP1;ratioP1;P1;durP2;ratioP2;P2;SDS_P1;SDS_P2;PMS_P1;PMS_P2;Temp;Humidity;BMP_temperature;BMP_pressure;BME280_temperature;BME280_humidity;BME280_pressure;Samples;Min_cycle;Max_cycle;Signal;HPM_P1;HPM_P2
2023/04/12 00:03:35;;;;;;;3.47;2.70;;;;;;;7.68;62.83;99281.69;7845133;31;37824;-84
2023/04/12 00:07:54;;;;;;;4.68;2.80;;;;;;;7.71;62.80;99278.44;7846469;31;37147;-84
2023/04/12 00:12:10;;;;;;;4.05;2.90;;;;;;;7.68;62.39;99272.75;7846214;31;40215;-83
2023/04/12 00:16:27;;;;;;;5.05;2.95;;;;;;;7.86;61.62;99271.44;7846302;31;40848;-84
2023/04/12 00:20:43;;;;;;;3.78;2.87;;;;;;;7.67;62.12;99271.91;7834876;31;37745;-84
2023/04/12 00:24:59;;;;;;;4.82;2.80;;;;;;;7.42;62.65;99280.75;7816247;32;36797;-84
2023/04/12 00:29:16;;;;;;;6.20;2.87;;;;;;;7.59;62.01;99274.31;7818480;32;39905;-84
2023/04/12 00:33:33;;;;;;;4.87;3.05;;;;;;;7.57;62.04;99281.91;7818367;32;39859;-83
2023/04/12 00:37:50;;;;;;;6.43;3.22;;;;;;;7.67;61.20;99271.91;7817074;32;38369;-84
2023/04/12 00:42:06;;;;;;;4.28;2.92;;;;;;;7.69;61.18;99274.34;7817054;32;38091;-83
2023/04/12 00:46:22;;;;;;;6.50;3.20;;;;;;;7.70;61.16;99273.28;7818161;32;39385;-84
2023/04/12 00:50:43;;;;;;;6.20;3.30;;;;;;;7.61;60.99;99278.41;7827076;31;39896;-84
2023/04/12 00:55:08;;;;;;;4.85;2.97;;;;;;;7.49;61.42;99286.75;7845452;31;38829;-84
2023/04/12 00:59:25;;;;;;;4.10;2.92;;;;;;;7.88;60.17;99294.53;7823059;31;37858;-84
2023/04/12 01:03:42;;;;;;;5.40;3.10;;;;;;;7.80;60.43;99292.31;7817638;32;40061;-84
2023/04/12 01:08:05;;;;;;;3.28;2.62;;;;;;;7.88;60.01;99299.97;7816304;32;40807;-83
2023/04/12 01:12:57;;;;;;;5.28;3.15;;;;;;;7.96;60.01;99289.66;7816071;32;37769;-84
2023/04/12 01:17:19;;;;;;;5.00;3.35;;;;;;;7.85;60.30;99295.06;7820615;31;38527;-84
2023/04/12 01:21:52;;;;;;;7.30;3.30;;;;;;;7.84;60.10;99285.28;7843610;31;39111;-84
2023/04/12 01:26:33;;;;;;;6.47;3.45;;;;;;;7.98;59.66;99290.22;7844659;31;40805;-83
2023/04/12 01:30:53;;;;;;;5.40;3.40;;;;;;;7.39;61.26;99292.13;7843366;31;38615;-85
2023/04/12 01:35:10;;;;;;;5.62;3.42;;;;;;;7.61;60.69;99296.59;7845764;31;37246;-84
2023/04/12 01:39:28;;;;;;;4.50;3.05;;;;;;;7.78;60.17;99289.06;7847159;31;39299;-84
2023/04/12 01:43:45;;;;;;;4.37;3.35;;;;;;;7.61;61.10;99283.03;7847025;31;39820;-84
2023/04/12 01:48:02;;;;;;;5.78;3.70;;;;;;;7.73;60.24;99280.91;7841221;31;38444;-83
2023/04/12 01:52:20;;;;;;;5.43;3.40;;;;;;;7.46;60.78;99275.63;7820566;32;37035;-84
2023/04/12 01:56:38;;;;;;;7.45;4.03;;;;;;;7.51;60.57;99273.75;7826185;31;39424;-83
2023/04/12 02:00:56;;;;;;;6.30;3.83;;;;;;;7.41;60.69;99273.69;7834229;31;40911;-84
2023/04/12 02:05:13;;;;;;;6.37;3.75;;;;;;;7.49;60.42;99267.75;7847798;31;38863;-83
2023/04/12 02:09:29;;;;;;;5.55;3.47;;;;;;;7.38;60.24;99263.38;7847664;31;37245;-84
2023/04/12 02:13:45;;;;;;;5.45;3.80;;;;;;;7.26;60.28;99268.19;7833991;31;40303;-84
2023/04/12 02:18:02;;;;;;;4.43;3.28;;;;;;;7.36;59.68;99262.81;7811244;32;39651;-84
2023/04/12 02:22:18;;;;;;;10.50;3.70;;;;;;;7.25;59.82;99261.16;7819415;32;37845;-83
2023/04/12 02:26:35;;;;;;;7.93;4.03;;;;;;;7.20;59.86;99250.28;7818951;32;37155;-82
2023/04/12 02:30:52;;;;;;;6.82;3.90;;;;;;;6.96;60.52;99256.06;7820120;32;39221;-83
2023/04/12 02:35:09;;;;;;;6.15;3.90;;;;;;;6.80;60.68;99247.03;7820103;32;40812;-83
2023/04/12 02:39:27;;;;;;;6.68;4.07;;;;;;;6.71;61.06;99241.28;7819933;32;37899;-83
2023/04/12 02:43:44;;;;;;;7.50;4.20;;;;;;;6.49;61.82;99246.00;7820024;32;37850;-83
2023/04/12 02:48:01;;;;;;;6.90;4.03;;;;;;;6.49;61.69;99232.44;7819724;31;39336;-83
2023/04/12 02:52:17;;;;;;;4.95;3.90;;;;;;;6.27;62.57;99225.22;7819808;32;40049;-84
2023/04/12 02:56:36;;;;;;;7.97;4.43;;;;;;;6.06;63.29;99228.81;7839048;31;39038;-83
2023/04/12 03:00:52;;;;;;;10.45;4.35;;;;;;;6.18;62.79;99224.06;7847379;31;37104;-84
2023/04/12 03:05:09;;;;;;;8.60;4.28;;;;;;;6.16;62.73;99231.63;7845985;31;39226;-83
2023/04/12 03:09:28;;;;;;;8.52;4.70;;;;;;;6.26;62.31;99220.88;7846915;31;40827;-84
2023/04/12 03:13:44;;;;;;;7.62;4.87;;;;;;;6.14;62.68;99218.34;7845684;31;37925;-84
2023/04/12 03:18:00;;;;;;;9.52;4.60;;;;;;;5.96;63.08;99216.81;7839368;31;37992;-84
2023/04/12 03:22:17;;;;;;;8.30;4.90;;;;;;;5.29;65.10;99220.59;7819566;32;39341;-83
2023/04/12 03:26:33;;;;;;;12.18;5.55;;;;;;;5.70;64.06;99210.28;7819390;31;39965;-83
2023/04/12 03:30:49;;;;;;;8.65;5.03;;;;;;;5.54;64.24;99203.88;7819276;32;37759;-84
2023/04/12 03:35:07;;;;;;;9.70;5.37;;;;;;;5.57;64.63;99202.56;7819388;32;37358;-83
2023/04/12 03:39:23;;;;;;;9.07;5.93;;;;;;;5.74;64.27;99194.34;7818166;32;39312;-83
2023/04/12 03:43:41;;;;;;;8.32;5.15;;;;;;;5.69;64.78;99199.72;7819461;32;40072;-83
2023/04/12 03:47:57;;;;;;;6.50;4.65;;;;;;;5.86;64.55;99205.03;7819127;31;38649;-84
2023/04/12 03:52:13;;;;;;;8.55;4.85;;;;;;;6.01;63.87;99205.22;7817972;32;37421;-83
2023/04/12 03:56:29;;;;;;;9.50;5.45;;;;;;;6.45;62.58;99204.22;7833320;31;39976;-84
2023/04/12 04:00:46;;;;;;;9.77;5.47;;;;;;;6.37;62.32;99206.34;7846456;31;39842;-84
2023/04/12 04:05:02;;;;;;;8.32;5.20;;;;;;;6.29;62.67;99204.09;7846437;31;37755;-83
2023/04/12 04:09:19;;;;;;;8.70;5.00;;;;;;;6.00;63.56;99211.69;7844997;31;37048;-84
2023/04/12 04:13:35;;;;;;;12.30;5.65;;;;;;;6.24;63.32;99214.88;7835665;31;39387;-83
2023/04/12 04:17:52;;;;;;;8.70;5.45;;;;;;;6.47;62.50;99210.19;7818631;32;41403;-84
2023/04/12 04:22:08;;;;;;;10.65;5.30;;;;;;;6.76;65.87;99213.41;7804577;32;37864;-84
2023/04/12 04:26:31;;;;;;;9.57;4.90;;;;;;;6.75;62.85;99207.16;7818605;32;37169;-83
2023/04/12 04:30:47;;;;;;;7.25;4.90;;;;;;;6.67;61.96;99210.34;7817404;32;40005;-83
2023/04/12 04:35:04;;;;;;;8.13;4.93;;;;;;;6.66;61.32;99203.31;7817200;32;40002;-84
2023/04/12 04:39:20;;;;;;;8.95;4.72;;;;;;;6.95;60.35;99211.06;7835911;31;37882;-84
2023/04/12 04:43:38;;;;;;;7.47;4.93;;;;;;;6.92;60.17;99201.59;7844565;31;37269;-82
2023/04/12 04:47:55;;;;;;;7.90;4.90;;;;;;;6.97;59.99;99208.94;7845727;31;38613;-83
2023/04/12 04:52:12;;;;;;;6.62;5.12;;;;;;;6.80;60.58;99208.28;7844275;31;39799;-83
2023/04/12 04:56:28;;;;;;;10.50;5.90;;;;;;;6.86;60.12;99209.94;7845251;31;38556;-84
2023/04/12 05:00:44;;;;;;;10.98;5.95;;;;;;;6.77;60.43;99209.63;7844101;31;38132;-84
2023/04/12 05:05:01;;;;;;;11.48;5.55;;;;;;;6.97;60.54;99211.66;7845176;31;39225;-84
2023/04/12 05:09:17;;;;;;;7.78;5.03;;;;;;;6.65;61.54;99212.50;7827341;31;40865;-83
2023/04/12 05:13:33;;;;;;;8.55;5.60;;;;;;;6.63;61.45;99211.97;7821015;32;38989;-84
2023/04/12 05:17:49;;;;;;;10.32;5.40;;;;;;;7.03;60.70;99216.00;7820982;32;37356;-83
2023/04/12 05:22:05;;;;;;;10.02;4.80;;;;;;;7.07;60.64;99209.00;7819668;32;39917;-84
2023/04/12 05:26:23;;;;;;;7.25;5.37;;;;;;;7.09;60.65;99214.97;7841024;31;40745;-84
2023/04/12 05:30:39;;;;;;;10.05;5.40;;;;;;;6.71;61.79;99225.03;7848240;31;38470;-83
2023/04/12 05:34:55;;;;;;;9.70;5.85;;;;;;;6.56;62.72;99227.62;7848384;31;37247;-83
2023/04/12 05:39:11;;;;;;;9.35;5.65;;;;;;;6.76;62.09;99222.34;7848242;31;39094;-83
2023/04/12 05:43:27;;;;;;;8.35;5.28;;;;;;;6.74;62.58;99219.09;7848325;31;40023;-83
2023/04/12 05:47:44;;;;;;;9.15;5.37;;;;;;;6.46;62.75;99214.81;7846927;31;38314;-83
2023/04/12 05:52:00;;;;;;;7.12;4.90;;;;;;;6.75;62.64;99225.31;7848052;31;37992;-84
2023/04/12 05:56:17;;;;;;;8.77;5.35;;;;;;;6.89;61.43;99225.69;7829055;31;39266;-83
2023/04/12 06:00:34;;;;;;;7.82;4.97;;;;;;;7.52;61.10;99223.03;7819376;32;40066;-83
2023/04/12 06:04:51;;;;;;;8.25;4.95;;;;;;;6.96;61.65;99226.28;7820420;32;37841;-83
2023/04/12 06:09:08;;;;;;;7.95;5.00;;;;;;;7.95;60.29;99222.87;7819055;31;37063;-84
2023/04/12 06:13:24;;;;;;;9.80;5.45;;;;;;;7.18;60.30;99231.56;7820412;32;40428;-83
2023/04/12 06:17:41;;;;;;;7.57;4.75;;;;;;;7.72;60.68;99233.13;7838688;31;40681;-82
2023/04/12 06:21:57;;;;;;;10.38;4.93;;;;;;;7.63;60.50;99224.69;7846537;31;37739;-82
2023/04/12 06:26:13;;;;;;;9.88;5.10;;;;;;;7.32;61.18;99232.69;7846633;31;37423;-84
2023/04/12 06:30:32;;;;;;;10.23;5.80;;;;;;;6.93;62.34;99226.78;7847754;31;39765;-81
2023/04/12 06:34:49;;;;;;;11.30;5.78;;;;;;;7.00;63.34;99232.78;7847591;31;39902;-82
2023/04/12 06:39:05;;;;;;;10.32;5.65;;;;;;;7.47;61.91;99229.25;7847478;31;37888;-83
2023/04/12 06:43:21;;;;;;;9.07;5.40;;;;;;;7.39;63.01;99227.03;7847593;31;36877;-83
2023/04/12 06:47:37;;;;;;;11.07;5.30;;;;;;;6.95;63.31;99221.91;7830024;31;39106;-84
2023/04/12 06:51:54;;;;;;;10.00;5.55;;;;;;;7.74;61.96;99216.59;7819809;32;40465;-83
2023/04/12 06:56:10;;;;;;;8.80;5.43;;;;;;;7.05;62.05;99208.44;7819736;32;38638;-83
2023/04/12 07:00:27;;;;;;;8.57;5.28;;;;;;;7.72;62.04;99198.66;7819780;32;37168;-83
2023/04/12 07:04:43;;;;;;;8.52;5.65;;;;;;;7.84;62.16;99216.63;7819717;32;40132;-83
2023/04/12 07:08:59;;;;;;;10.05;5.82;;;;;;;7.95;60.61;99218.28;7838847;31;39712;-82
2023/04/12 07:13:15;;;;;;;9.63;5.70;;;;;;;8.12;61.00;99218.00;7846757;31;39217;-83
2023/04/12 07:17:31;;;;;;;9.57;6.12;;;;;;;7.92;61.69;99213.38;7847287;31;36753;-84
2023/04/12 07:21:48;;;;;;;11.18;6.87;;;;;;;7.52;62.47;99220.31;7847204;31;40236;-84
2023/04/12 07:26:04;;;;;;;10.90;6.75;;;;;;;8.41;61.95;99222.94;7847121;31;39816;-84
2023/04/12 07:30:20;;;;;;;12.90;5.93;;;;;;;8.56;60.23;99225.69;7846952;31;37965;-81
2023/04/12 07:34:38;;;;;;;18.08;8.40;;;;;;;8.06;61.40;99225.34;7845264;31;37299;-83
2023/04/12 07:38:54;;;;;;;11.63;6.78;;;;;;;8.20;60.72;99233.78;7847410;31;40361;-83
2023/04/12 07:43:11;;;;;;;13.20;6.28;;;;;;;8.08;62.21;99225.06;7844104;31;40003;-83
2023/04/12 07:47:27;;;;;;;12.77;6.25;;;;;;;8.79;61.91;99213.44;7846828;31;37594;-84
2023/04/12 07:51:44;;;;;;;8.80;4.87;;;;;;;9.25;59.45;99211.72;7844058;31;37474;-82
2023/04/12 07:56:02;;;;;;;11.65;5.75;;;;;;;9.03;58.67;99204.69;7843169;31;40135;-83
2023/04/12 08:00:21;;;;;;;11.40;5.57;;;;;;;9.35;58.30;99206.25;7823379;31;40849;-91
2023/04/12 08:04:37;;;;;;;7.97;4.97;;;;;;;9.34;58.03;99210.03;7819763;32;39399;-88
2023/04/12 08:08:54;;;;;;;8.80;5.20;;;;;;;9.52;57.53;99198.53;7807080;32;356796;-86
2023/04/12 08:13:10;;;;;;;8.68;5.30;;;;;;;10.17;57.23;99185.91;7818847;32;40050;-86
2023/04/12 08:17:27;;;;;;;7.72;4.50;;;;;;;10.80;55.51;99191.38;7817750;32;40035;-83
2023/04/12 08:21:43;;;;;;;6.95;4.12;;;;;;;10.86;53.49;99187.50;7818885;32;39239;-83
2023/04/12 08:26:02;;;;;;;7.32;4.40;;;;;;;11.71;53.37;99185.16;7820579;31;37788;-83
2023/04/12 08:30:18;;;;;;;6.40;3.87;;;;;;;12.25;51.51;99174.81;7828039;31;39415;-83
2023/04/12 08:34:36;;;;;;;5.87;3.83;;;;;;;12.47;49.02;99173.34;7828918;31;39919;-83
2023/04/12 08:38:54;;;;;;;6.55;3.65;;;;;;;12.45;48.26;99172.84;7829820;31;37979;-87
2023/04/12 08:43:11;;;;;;;6.35;3.53;;;;;;;12.82;48.75;99155.53;7827959;31;36339;-86
2023/04/12 08:47:28;;;;;;;6.05;3.40;;;;;;;13.13;45.61;99150.25;7824992;31;38998;-86
2023/04/12 08:51:44;;;;;;;4.97;3.05;;;;;;;13.19;45.57;99148.22;7828552;31;40746;-87
2023/04/12 08:56:01;;;;;;;4.22;2.75;;;;;;;13.63;45.82;99146.00;7818018;32;36941;-85
2023/04/12 09:00:19;;;;;;;4.10;2.58;;;;;;;14.01;42.72;99145.69;7817787;32;36964;-84
2023/04/12 09:04:47;;;;;;;5.05;2.65;;;;;;;14.04;42.88;99139.56;7816667;32;39251;-86
2023/04/12 09:09:05;;;;;;;4.53;3.05;;;;;;;13.87;40.75;99135.56;7766180;31;39987;-84
2023/04/12 09:13:38;;;;;;;5.50;2.75;;;;;;;14.37;40.45;99139.31;7761664;32;38667;-84
2023/04/12 09:18:10;;;;;;;3.90;2.60;;;;;;;14.04;40.34;99136.84;7761941;32;37714;-85
2023/04/12 09:22:36;;;;;;;3.90;2.72;;;;;;;14.98;41.26;99126.72;7761948;32;40071;-84
2023/04/12 09:27:12;;;;;;;4.20;2.67;;;;;;;15.07;38.79;99126.75;7749052;32;39971;-85
2023/04/12 09:31:28;;;;;;;5.03;2.72;;;;;;;15.17;38.85;99115.50;7768007;32;37889;-85
2023/04/12 09:35:45;;;;;;;3.28;2.42;;;;;;;15.31;36.18;99115.38;7761756;32;37817;-86
2023/04/12 09:40:03;;;;;;;3.70;2.67;;;;;;;15.39;40.18;99114.56;7753407;32;40162;-86
2023/04/12 09:44:31;;;;;;;7.32;2.60;;;;;;;15.67;37.94;99113.50;7753336;32;41248;-86
2023/04/12 09:48:57;;;;;;;5.80;2.72;;;;;;;15.48;37.06;99105.56;7733967;32;39093;-86
2023/04/12 09:53:17;;;;;;;4.65;2.40;;;;;;;15.25;39.79;99104.88;7764205;32;37553;-85
2023/04/12 09:57:34;;;;;;;6.75;2.30;;;;;;;15.86;36.27;99091.22;7783914;32;39371;-85
2023/04/12 10:01:51;;;;;;;5.18;2.33;;;;;;;16.42;36.52;99081.09;7779316;32;39946;-85
2023/04/12 10:06:09;;;;;;;5.07;2.80;;;;;;;16.14;35.14;99073.25;7790428;32;37557;-85
2023/04/12 10:10:27;;;;;;;8.70;4.15;;;;;;;15.53;36.35;99088.91;7772640;32;36990;-86
2023/04/12 10:14:44;;;;;;;7.55;3.33;;;;;;;15.61;36.86;99085.38;7791222;32;39304;-85
2023/04/12 10:19:02;;;;;;;5.40;2.83;;;;;;;16.27;36.89;99081.63;7784983;32;40644;-86
2023/04/12 10:23:19;;;;;;;3.92;2.90;;;;;;;16.60;38.38;99083.78;7764391;32;37315;-85
2023/04/12 10:27:35;;;;;;;4.62;2.35;;;;;;;16.52;35.97;99078.00;7785051;32;37099;-85
2023/04/12 10:31:53;;;;;;;4.12;2.55;;;;;;;16.74;36.16;99073.38;7793048;32;39844;-85
2023/04/12 10:36:11;;;;;;;4.25;2.75;;;;;;;17.06;37.02;99068.41;7790665;32;39823;-85
2023/04/12 10:40:31;;;;;;;3.95;2.55;;;;;;;17.35;31.88;99061.25;7789255;32;38526;-86
2023/04/12 10:44:49;;;;;;;4.03;1.85;;;;;;;17.50;33.09;99048.81;7788594;32;37337;-86
2023/04/12 10:49:15;;;;;;;4.15;2.15;;;;;;;17.58;31.17;99053.47;7790510;32;38992;-86
2023/04/12 10:53:32;;;;;;;5.90;2.03;;;;;;;18.42;31.29;99047.00;7791034;32;39879;-86
2023/04/12 10:57:48;;;;;;;4.72;2.20;;;;;;;18.54;33.80;99053.34;7791180;32;38667;-86
2023/04/12 11:02:12;;;;;;;3.40;2.08;;;;;;;18.13;32.46;99040.50;7792532;32;37066;-86
2023/04/12 11:06:52;;;;;;;3.30;2.10;;;;;;;18.51;29.48;99043.00;7792212;32;39695;-86
2023/04/12 11:11:21;;;;;;;4.78;2.67;;;;;;;18.77;31.80;99045.44;7792631;32;39479;-86
2023/04/12 11:15:40;;;;;;;3.85;2.25;;;;;;;18.34;30.73;99038.47;7792369;32;37682;-86
2023/04/12 11:19:59;;;;;;;4.87;2.30;;;;;;;18.04;31.59;99037.84;7791029;32;36945;-85
2023/04/12 11:24:15;;;;;;;8.18;2.92;;;;;;;18.50;31.91;99037.81;7792225;32;38669;-86
2023/04/12 11:28:31;;;;;;;6.55;2.70;;;;;;;18.84;30.96;99044.09;7792126;32;40766;-86
2023/04/12 11:32:51;;;;;;;3.72;2.40;;;;;;;19.09;29.86;99045.69;7792238;32;38702;-85
2023/04/12 11:37:08;;;;;;;6.68;2.75;;;;;;;18.58;30.93;99028.62;7792029;32;37849;-86
2023/04/12 11:41:24;;;;;;;5.07;2.58;;;;;;;17.73;30.77;99027.22;7792073;32;39985;-85
2023/04/12 11:45:40;;;;;;;4.93;2.80;;;;;;;18.38;29.89;99031.16;7791925;32;40823;-85
2023/04/12 11:49:58;;;;;;;6.45;2.78;;;;;;;18.68;32.13;99010.78;7791773;32;38611;-86
2023/04/12 11:54:14;;;;;;;4.35;2.47;;;;;;;19.40;29.43;99002.78;7791719;32;37022;-86
2023/04/12 11:58:33;;;;;;;3.17;2.20;;;;;;;19.39;27.68;98995.66;7791956;32;39322;-86
2023/04/12 12:02:51;;;;;;;4.53;2.25;;;;;;;19.53;29.30;99006.31;7791715;32;38886;-85
2023/04/12 12:07:23;;;;;;;5.47;2.28;;;;;;;19.48;27.32;99001.03;7791589;32;38839;-85
2023/04/12 12:11:39;;;;;;;3.50;2.40;;;;;;;19.84;27.79;98977.19;7791171;32;38062;-85
2023/04/12 12:15:58;;;;;;;4.65;2.53;;;;;;;19.36;29.84;98968.72;7790484;32;39318;-86
2023/04/12 12:20:21;;;;;;;6.20;2.40;;;;;;;19.27;27.86;98971.63;7791391;32;40053;-86
2023/04/12 12:24:38;;;;;;;5.65;2.42;;;;;;;20.20;27.56;98962.31;7791418;32;37846;-86
2023/04/12 12:28:59;;;;;;;4.37;2.35;;;;;;;20.80;26.34;98961.44;7791396;32;37120;-86
2023/04/12 12:33:19;;;;;;;4.53;2.40;;;;;;;20.15;25.11;98953.50;7791189;32;39800;-86
2023/04/12 12:37:52;;;;;;;4.07;2.30;;;;;;;20.08;26.54;98951.34;7791177;32;40689;-86
2023/04/12 12:42:10;;;;;;;7.65;2.25;;;;;;;20.49;24.46;98943.66;7791369;32;38651;-86
2023/04/12 12:46:27;;;;;;;5.50;2.30;;;;;;;20.90;24.99;98944.22;7789762;32;37697;-86
2023/04/12 12:51:03;;;;;;;5.15;2.45;;;;;;;20.63;24.85;98951.53;7790692;32;38443;-86
2023/04/12 12:55:20;;;;;;;5.18;2.55;;;;;;;20.90;23.24;98944.22;7790723;32;39997;-86
2023/04/12 12:59:38;;;;;;;3.33;2.12;;;;;;;20.48;26.03;98939.28;7789630;32;38814;-86
2023/04/12 13:03:54;;;;;;;5.47;2.47;;;;;;;19.59;25.58;98948.81;7790452;32;37082;-86
2023/04/12 13:08:11;;;;;;;5.65;2.20;;;;;;;20.31;26.92;98934.91;7790612;32;39288;-86
2023/04/12 13:12:27;;;;;;;6.70;1.95;;;;;;;20.07;24.23;98936.72;7790244;32;41419;-86
2023/04/12 13:16:44;;;;;;;5.28;2.30;;;;;;;20.58;24.98;98924.09;7789109;32;38462;-86
2023/04/12 13:21:01;;;;;;;3.37;2.20;;;;;;;20.46;23.53;98930.53;7788866;32;37728;-86
2023/04/12 13:25:18;;;;;;;3.55;1.77;;;;;;;19.80;23.91;98924.56;7789951;32;40173;-86
2023/04/12 13:29:35;;;;;;;4.53;2.10;;;;;;;21.05;24.27;98911.31;7789780;32;39878;-86
2023/04/12 13:33:54;;;;;;;6.93;1.60;;;;;;;21.47;22.92;98894.78;7793333;32;37652;-86
2023/04/12 13:38:10;;;;;;;4.55;1.98;;;;;;;20.59;20.81;98906.31;7793474;32;38132;-86
2023/04/12 13:42:26;;;;;;;6.03;2.05;;;;;;;20.49;23.60;98901.31;7793538;32;39338;-86
2023/04/12 13:46:42;;;;;;;3.25;1.98;;;;;;;20.98;23.49;98896.13;7793407;32;40010;-86
2023/04/12 13:50:59;;;;;;;3.65;1.95;;;;;;;21.06;21.72;98901.81;7793630;32;38618;-86
2023/04/12 13:55:15;;;;;;;2.58;1.50;;;;;;;20.45;19.31;98892.94;7793399;32;37114;-86
2023/04/12 13:59:31;;;;;;;4.22;1.70;;;;;;;20.81;22.03;98888.25;7793413;32;39550;-86
2023/04/12 14:03:47;;;;;;;4.85;2.10;;;;;;;21.10;21.87;98888.84;7793295;32;40548;-86
2023/04/12 14:08:03;;;;;;;7.05;1.70;;;;;;;19.70;21.41;98892.66;7793153;32;37543;-86
2023/04/12 14:12:20;;;;;;;4.18;1.70;;;;;;;19.80;21.59;98896.06;7792885;32;37763;-86
2023/04/12 14:16:38;;;;;;;3.05;1.58;;;;;;;20.53;21.54;98883.63;7793211;32;38271;-86
2023/04/12 14:20:56;;;;;;;1.42;1.23;;;;;;;20.79;18.96;98871.19;7792964;32;39963;-86
2023/04/12 14:25:12;;;;;;;2.03;1.12;;;;;;;19.84;18.72;98886.72;7793065;32;40097;-86
2023/04/12 14:29:28;;;;;;;3.50;1.58;;;;;;;19.85;18.78;98874.50;7792919;32;37162;-86
2023/04/12 14:33:45;;;;;;;4.10;1.80;;;;;;;20.22;18.38;98871.44;7792887;32;39260;-86
2023/04/12 14:38:03;;;;;;;3.28;1.70;;;;;;;19.99;20.26;98874.06;7792630;32;39619;-85
2023/04/12 14:42:21;;;;;;;2.67;1.40;;;;;;;19.70;18.45;98883.56;7791688;32;38946;-86
2023/04/12 14:46:37;;;;;;;3.33;1.58;;;;;;;19.20;19.06;98860.91;7792720;32;37629;-86
2023/04/12 14:50:54;;;;;;;3.65;1.42;;;;;;;19.51;18.52;98878.72;7792657;32;39270;-85
2023/04/12 14:55:10;;;;;;;2.78;1.55;;;;;;;19.32;19.85;98871.09;7792450;32;40043;-86
2023/04/12 14:59:27;;;;;;;2.28;1.60;;;;;;;19.77;19.77;98867.19;7792522;32;37823;-85
2023/04/12 15:03:44;;;;;;;3.12;1.73;;;;;;;18.79;19.63;98878.63;7792433;32;38141;-86
2023/04/12 15:08:01;;;;;;;3.22;1.70;;;;;;;19.20;17.88;98877.47;7792445;32;39342;-86
2023/04/12 15:12:17;;;;;;;2.65;1.40;;;;;;;18.58;19.40;98874.06;7792115;32;40865;-86
2023/04/12 15:16:33;;;;;;;4.37;1.58;;;;;;;18.71;21.42;98877.59;7792247;32;37971;-86
2023/04/12 15:20:50;;;;;;;2.60;1.50;;;;;;;18.64;19.51;98872.66;7791011;32;37865;-86
2023/04/12 15:25:07;;;;;;;3.30;1.70;;;;;;;18.72;18.40;98879.22;7792353;32;40100;-86
2023/04/12 15:29:25;;;;;;;3.90;1.40;;;;;;;18.14;19.62;98879.38;7792297;32;40104;-86
2023/04/12 15:33:41;;;;;;;4.50;1.60;;;;;;;18.67;20.47;98880.25;7792061;32;37525;-86
2023/04/12 15:37:58;;;;;;;4.35;1.55;;;;;;;18.00;21.05;98886.03;7791125;32;36736;-86
2023/04/12 15:42:15;;;;;;;3.58;1.67;;;;;;;18.17;19.90;98885.00;7792127;32;39603;-86
2023/04/12 15:46:31;;;;;;;3.20;1.67;;;;;;;18.46;19.63;98876.84;7790731;32;39922;-85
2023/04/12 15:50:48;;;;;;;4.37;2.03;;;;;;;18.32;20.59;98883.50;7791922;32;37759;-86
2023/04/12 15:55:05;;;;;;;3.85;1.80;;;;;;;18.36;20.61;98873.37;7790123;32;37841;-86
2023/04/12 15:59:21;;;;;;;3.30;1.80;;;;;;;18.19;20.46;98874.41;7791812;32;40395;-85
2023/04/12 16:03:38;;;;;;;3.00;1.73;;;;;;;17.58;21.70;98882.59;7791918;32;39944;-85
2023/04/12 16:07:55;;;;;;;5.47;1.75;;;;;;;17.60;21.79;98874.81;7791674;32;37963;-85
2023/04/12 16:12:11;;;;;;;4.53;2.42;;;;;;;17.59;21.39;98874.00;7791453;32;37643;-85
2023/04/12 16:16:28;;;;;;;12.45;3.37;;;;;;;17.92;20.92;98867.66;7791658;32;39824;-85
2023/04/12 16:20:45;;;;;;;5.53;2.20;;;;;;;17.60;20.15;98864.56;7791389;32;40809;-85
2023/04/12 16:25:01;;;;;;;8.27;3.20;;;;;;;17.49;21.16;98863.41;7791346;32;37936;-85
2023/04/12 16:29:17;;;;;;;5.82;2.40;;;;;;;17.29;20.26;98862.31;7791463;32;38574;-86
2023/04/12 16:33:34;;;;;;;4.85;2.30;;;;;;;17.17;20.32;98852.06;7791224;32;39040;-86
2023/04/12 16:37:50;;;;;;;6.55;2.50;;;;;;;17.28;21.89;98849.66;7791066;32;39935;-85
2023/04/12 16:42:06;;;;;;;4.07;1.95;;;;;;;17.57;22.61;98845.97;7790969;32;37813;-85
2023/04/12 16:46:22;;;;;;;4.05;2.00;;;;;;;17.31;22.36;98840.72;7789774;32;37955;-85
2023/04/12 16:50:43;;;;;;;2.83;1.70;;;;;;;17.22;22.90;98843.56;7790782;32;39502;-85
2023/04/12 16:54:59;;;;;;;4.20;1.80;;;;;;;17.20;22.76;98845.88;7789634;32;40964;-86
2023/04/12 16:59:16;;;;;;;1.85;1.48;;;;;;;17.32;23.20;98836.84;7790647;32;37812;-85
2023/04/12 17:03:32;;;;;;;6.22;3.20;;;;;;;17.50;23.41;98831.94;7790492;32;37006;-85
2023/04/12 17:07:50;;;;;;;10.60;5.75;;;;;;;17.42;23.90;98841.13;7792898;32;39359;-85
2023/04/12 17:12:06;;;;;;;10.63;6.20;;;;;;;17.07;24.12;98846.97;7793412;32;40306;-85
2023/04/12 17:16:23;;;;;;;8.45;3.10;;;;;;;16.88;24.42;98844.69;7794103;32;36522;-85
2023/04/12 17:20:40;;;;;;;4.60;2.00;;;;;;;16.81;23.43;98850.72;7793779;32;36903;-85
2023/04/12 17:24:56;;;;;;;5.93;2.22;;;;;;;16.42;22.92;98843.72;7792467;32;40894;-85
2023/04/12 17:29:13;;;;;;;5.32;2.47;;;;;;;16.45;23.38;98851.31;7793571;32;40802;-85
2023/04/12 17:33:29;;;;;;;6.65;2.53;;;;;;;16.40;23.76;98843.25;7793339;32;38609;-85
2023/04/12 17:37:46;;;;;;;6.07;3.00;;;;;;;16.22;24.49;98842.56;7793464;32;37941;-85
2023/04/12 17:42:02;;;;;;;12.37;4.32;;;;;;;16.06;25.92;98850.56;7793481;32;39257;-85
2023/04/12 17:46:19;;;;;;;11.48;5.05;;;;;;;15.99;25.78;98856.59;7793309;32;40666;-85
2023/04/12 17:50:35;;;;;;;14.50;6.15;;;;;;;15.87;25.85;98868.28;7791960;32;37932;-85
2023/04/12 17:54:51;;;;;;;13.73;5.93;;;;;;;15.57;27.27;98864.63;7793178;32;37883;-85
2023/04/12 17:59:09;;;;;;;15.60;5.55;;;;;;;15.56;27.93;98860.28;7790158;32;39915;-85
2023/04/12 18:03:26;;;;;;;13.65;6.93;;;;;;;15.19;28.96;98871.66;7767456;32;41546;-84
2023/04/12 18:07:42;;;;;;;13.18;7.00;;;;;;;15.05;27.96;98881.19;7752470;32;38699;-85
2023/04/12 18:11:58;;;;;;;13.25;5.90;;;;;;;14.97;29.31;98864.41;7739518;32;37037;-85
2023/04/12 18:16:15;;;;;;;12.35;5.50;;;;;;;14.65;29.38;98869.22;7762170;32;40083;-85
2023/04/12 18:20:32;;;;;;;5.97;3.00;;;;;;;14.64;30.49;98861.31;7738689;32;40026;-85
2023/04/12 18:24:48;;;;;;;5.35;2.30;;;;;;;14.40;31.58;98867.22;7756852;32;38631;-88
2023/04/12 18:29:05;;;;;;;5.07;2.58;;;;;;;14.03;32.61;98863.91;7765642;32;37046;-87
2023/04/12 18:33:21;;;;;;;4.28;2.30;;;;;;;14.03;32.50;98866.66;7766627;32;39353;-87
2023/04/12 18:37:37;;;;;;;3.75;2.10;;;;;;;13.75;32.84;98858.63;7757670;32;39944;-87
2023/04/12 18:41:55;;;;;;;5.45;2.50;;;;;;;13.28;33.40;98869.94;7764530;32;38727;-86
2023/04/12 18:46:18;;;;;;;7.97;2.55;;;;;;;13.46;31.81;98881.84;7761807;32;37103;-87
2023/04/12 18:50:38;;;;;;;5.07;2.90;;;;;;;13.29;33.06;98873.50;7763493;32;40097;-87
2023/04/12 18:54:54;;;;;;;4.75;2.50;;;;;;;13.32;34.43;98878.38;7753991;32;38243;-87
2023/04/12 18:59:16;;;;;;;3.78;2.53;;;;;;;12.90;34.29;98883.16;7765103;32;37987;-87
2023/04/12 19:03:33;;;;;;;6.85;3.30;;;;;;;13.08;33.80;98874.00;7765155;32;37864;-87
2023/04/12 19:07:50;;;;;;;5.43;2.25;;;;;;;12.64;31.90;98882.94;7765147;32;40526;-87
2023/04/12 19:12:07;;;;;;;5.05;2.55;;;;;;;12.68;33.66;98894.91;7764768;32;39862;-88
2023/04/12 19:16:23;;;;;;;8.25;3.70;;;;;;;12.72;34.44;98893.97;7764737;32;37893;-71
2023/04/12 19:20:39;;;;;;;8.13;3.15;;;;;;;12.97;41.85;98900.00;7755435;32;38537;-86
2023/04/12 19:24:56;;;;;;;4.57;2.75;;;;;;;12.91;36.88;98895.75;7750156;32;39742;-87
2023/04/12 19:29:16;;;;;;;2.83;2.28;;;;;;;12.81;36.22;98887.78;7750372;32;40757;-87
2023/04/12 19:33:33;;;;;;;5.12;2.30;;;;;;;12.47;35.17;98891.78;7744862;32;37651;-88
2023/04/12 19:37:49;;;;;;;4.35;2.03;;;;;;;12.32;34.83;98901.94;7746351;32;36988;-86
2023/04/12 19:42:05;;;;;;;3.92;2.17;;;;;;;12.25;33.61;98896.06;7746617;32;39283;-87
2023/04/12 19:46:22;;;;;;;3.85;2.00;;;;;;;12.14;34.59;98892.75;7759561;32;39895;-87
2023/04/12 19:50:38;;;;;;;4.95;2.17;;;;;;;12.13;36.02;98893.06;7741243;32;37968;-88
2023/04/12 19:54:55;;;;;;;5.18;1.95;;;;;;;12.02;36.14;98890.53;7780287;32;37045;-88
2023/04/12 19:59:14;;;;;;;3.37;2.08;;;;;;;12.04;34.46;98873.81;7780011;32;38434;-88
2023/04/12 20:03:32;;;;;;;3.65;2.40;;;;;;;11.97;35.72;98863.31;7779447;32;39592;-89
2023/04/12 20:07:48;;;;;;;4.50;2.33;;;;;;;12.08;35.02;98865.84;7767872;32;37985;-87
2023/04/12 20:12:05;;;;;;;6.55;3.30;;;;;;;11.83;34.06;98866.00;7765042;32;37097;-90
2023/04/12 20:16:23;;;;;;;5.85;2.70;;;;;;;11.82;34.02;98864.38;7765539;32;39383;-87
2023/04/12 20:20:42;;;;;;;5.85;2.72;;;;;;;11.86;36.02;98861.03;7764963;32;40813;-88